createdAt,value
2023-01-20T00:00:21.055Z,100991.75
2023-01-20T00:05:51.387Z,101018.25
2023-01-20T00:11:13.215Z,101011.75
2023-01-20T00:16:34.951Z,101013.31
2023-01-20T00:21:56.684Z,101016.81
2023-01-20T00:27:20.418Z,101028.34
2023-01-20T00:32:45.541Z,101021.59
2023-01-20T00:38:07.241Z,101025.94
2023-01-20T00:43:29.243Z,101032.19
2023-01-20T00:48:50.929Z,101044.56
2023-01-20T00:54:12.696Z,101042.31
2023-01-20T00:59:34.494Z,101046.63
2023-01-20T01:04:56.203Z,101051.78
2023-01-20T01:10:18.115Z,101053.09
2023-01-20T01:15:39.827Z,101059.13
2023-01-20T01:21:09.987Z,101073.16
2023-01-20T01:26:31.689Z,101081.34
2023-01-20T01:31:53.437Z,101084.34
2023-01-20T01:37:15.213Z,101102.25
2023-01-20T01:42:37.205Z,101101.88
2023-01-20T01:48:09.586Z,101104.88
2023-01-20T01:53:37.162Z,101107.84
2023-01-20T01:59:01.572Z,101113.03
2023-01-20T02:04:25.588Z,101106.03
2023-01-20T02:09:47.710Z,101110.97
2023-01-20T02:15:09.905Z,101114.19
2023-01-20T02:20:37.053Z,101105.28
2023-01-20T02:26:07.992Z,101121.25
2023-01-20T02:31:48.282Z,101119.56
2023-01-20T02:37:17.032Z,101104.28
2023-01-20T02:43:02.498Z,101105.59
2023-01-20T02:48:44.456Z,101100.06
2023-01-20T02:54:10.782Z,101096.94
2023-01-20T02:59:37.831Z,101101.00
2023-01-20T03:05:09.308Z,101104.81
2023-01-20T03:10:33.802Z,101110.84
2023-01-20T03:15:58.165Z,101118.53
2023-01-20T03:21:20.145Z,101117.66
2023-01-20T03:26:41.867Z,101116.22
2023-01-20T03:32:07.558Z,101122.81
2023-01-20T03:37:29.326Z,101121.81
2023-01-20T03:43:31.500Z,101131.56
2023-01-20T03:49:04.422Z,101134.81
2023-01-20T03:54:37.449Z,101136.97
2023-01-20T04:00:00.325Z,101140.19
2023-01-20T04:05:22.652Z,101135.72
2023-01-20T04:10:47.282Z,101139.56
2023-01-20T04:16:16.772Z,101134.88
2023-01-20T04:21:43.827Z,101137.25
2023-01-20T04:27:05.496Z,101143.00
2023-01-20T04:32:27.225Z,101140.50
2023-01-20T04:37:49.122Z,101135.16
2023-01-20T04:43:12.223Z,101137.34
2023-01-20T04:48:33.920Z,101144.78
2023-01-20T04:53:59.537Z,101150.31
2023-01-20T04:59:21.343Z,101161.81
2023-01-20T05:04:43.192Z,101154.59
2023-01-20T05:10:05.431Z,101162.28
2023-01-20T05:15:28.093Z,101162.28
2023-01-20T05:20:50.402Z,101157.84
2023-01-20T05:26:12.155Z,101161.88
2023-01-20T05:31:33.915Z,101166.56
2023-01-20T05:36:55.701Z,101161.28
2023-01-20T05:42:17.471Z,101158.72
2023-01-20T05:47:39.316Z,101165.31
2023-01-20T05:53:01.027Z,101157.28
2023-01-20T05:58:23.045Z,101165.78
2023-01-20T06:03:44.736Z,101164.94
2023-01-20T06:09:06.964Z,101157.59
2023-01-20T06:14:28.692Z,101157.53
2023-01-20T06:19:50.474Z,101157.53
2023-01-20T06:25:12.226Z,101157.28
2023-01-20T06:30:34.529Z,101165.31
2023-01-20T06:35:57.491Z,101167.63
2023-01-20T06:41:20.784Z,101164.81
2023-01-20T06:46:42.517Z,101168.19
2023-01-20T06:52:04.280Z,101170.94
2023-01-20T06:57:26.081Z,101174.69
2023-01-20T07:02:49.485Z,101163.66
2023-01-20T07:08:11.921Z,101174.16
2023-01-20T07:13:33.687Z,101179.91
2023-01-20T07:18:56.028Z,101188.91
2023-01-20T07:24:18.118Z,101186.03
2023-01-20T07:29:40.771Z,101200.63
2023-01-20T07:35:02.547Z,101223.03
2023-01-20T07:40:24.253Z,101220.50
2023-01-20T07:45:46.177Z,101224.97
2023-01-20T07:51:10.341Z,101216.91
2023-01-20T07:56:32.125Z,101216.75
2023-01-20T08:01:53.861Z,101214.81
2023-01-20T08:07:15.596Z,101216.00
2023-01-20T08:12:37.315Z,101206.78
2023-01-20T08:17:59.827Z,101220.75
2023-01-20T08:23:21.609Z,101223.63
2023-01-20T08:28:43.504Z,101227.75
2023-01-20T08:34:05.610Z,101228.84
2023-01-20T08:39:27.484Z,101227.59
2023-01-20T08:44:53.204Z,101230.38
2023-01-20T08:50:15.766Z,101225.47
2023-01-20T08:55:37.516Z,101230.09
2023-01-20T09:00:59.883Z,101229.09
2023-01-20T09:06:22.621Z,101221.44
2023-01-20T09:11:51.515Z,101224.91
2023-01-20T09:17:14.820Z,101231.69
2023-01-20T09:22:36.528Z,101240.31
2023-01-20T09:28:01.794Z,101246.09
2023-01-20T09:33:23.533Z,101246.94
2023-01-20T09:39:03.412Z,101234.13
2023-01-20T09:44:45.479Z,101240.53
2023-01-20T09:50:31.868Z,101246.66
2023-01-20T09:55:58.020Z,101246.19
2023-01-20T10:01:24.705Z,101251.50
2023-01-20T10:06:49.090Z,101230.28
2023-01-20T10:12:19.886Z,101241.53
2023-01-20T10:17:47.394Z,101254.88
2023-01-20T10:23:41.441Z,101260.16
2023-01-20T10:29:06.765Z,101273.19
2023-01-20T10:34:44.074Z,101290.03
2023-01-20T10:40:24.442Z,101286.03
2023-01-20T10:46:04.377Z,101279.41
2023-01-20T10:51:34.880Z,101291.25
2023-01-20T10:56:59.817Z,101286.66
2023-01-20T11:02:29.249Z,101283.19
2023-01-20T11:07:54.033Z,101283.06
2023-01-20T11:13:15.718Z,101305.41
2023-01-20T11:18:37.411Z,101303.34
2023-01-20T11:24:00.184Z,101287.69
2023-01-20T11:29:21.818Z,101281.41
2023-01-20T11:34:49.809Z,101285.28
2023-01-20T11:40:23.058Z,101286.88
2023-01-20T11:45:44.803Z,101308.09
2023-01-20T11:51:19.992Z,101301.28
2023-01-20T11:56:44.608Z,101298.38
2023-01-20T12:02:09.187Z,101301.41
2023-01-20T12:07:45.673Z,101296.94
2023-01-20T12:13:13.076Z,101293.56
2023-01-20T12:18:45.392Z,101293.00
2023-01-20T12:24:38.699Z,101299.00
2023-01-20T12:30:16.556Z,101292.00
2023-01-20T12:35:52.202Z,101289.22
2023-01-20T12:41:44.593Z,101279.00
2023-01-20T12:47:27.888Z,101281.16
2023-01-20T12:53:16.646Z,101289.84
2023-01-20T12:58:48.389Z,101316.81
2023-01-20T13:04:48.929Z,101317.31
2023-01-20T13:10:13.758Z,101300.53
2023-01-20T13:15:59.317Z,101304.63
2023-01-20T13:21:21.462Z,101284.97
2023-01-20T13:26:43.446Z,101269.94
2023-01-20T13:32:28.222Z,101282.13
2023-01-20T13:38:01.538Z,101281.50
2023-01-20T13:43:23.993Z,101271.44
2023-01-20T13:49:13.425Z,101279.13
2023-01-20T13:54:42.295Z,101312.50
2023-01-20T14:00:12.453Z,101310.69
2023-01-20T14:05:34.197Z,101299.53
2023-01-20T14:11:26.440Z,101305.31
2023-01-20T14:16:48.485Z,101300.97
2023-01-20T14:22:24.999Z,101337.34
2023-01-20T14:27:46.704Z,101365.00
2023-01-20T14:33:10.542Z,101320.09
2023-01-20T14:38:55.503Z,101305.91
2023-01-20T14:44:23.805Z,101305.31
2023-01-20T14:49:48.704Z,101308.91
2023-01-20T14:55:31.343Z,101315.34
2023-01-20T15:00:59.855Z,101327.41
2023-01-20T15:06:22.588Z,101341.72
2023-01-20T15:11:46.075Z,101358.84
2023-01-20T15:17:09.358Z,101371.88
2023-01-20T15:22:31.179Z,101357.91
2023-01-20T15:27:54.391Z,101376.38
2023-01-20T15:33:16.349Z,101368.25
2023-01-20T15:38:38.205Z,101372.72
2023-01-20T15:43:59.931Z,101393.13
2023-01-20T15:49:21.672Z,101409.56
2023-01-20T15:54:43.416Z,101416.19
2023-01-20T16:00:06.947Z,101420.41
2023-01-20T16:05:28.717Z,101424.63
2023-01-20T16:10:50.855Z,101426.41
2023-01-20T16:16:19.090Z,101428.13
2023-01-20T16:21:41.308Z,101436.78
2023-01-20T16:27:04.581Z,101454.38
2023-01-20T16:32:26.313Z,101464.25
2023-01-20T16:37:48.357Z,101473.91
2023-01-20T16:43:12.524Z,101475.81
2023-01-20T16:48:34.374Z,101480.50
2023-01-20T16:53:57.271Z,101488.81
2023-01-20T16:59:19.111Z,101500.56
2023-01-20T17:04:40.895Z,101505.53
2023-01-20T17:10:02.797Z,101518.34
2023-01-20T17:15:25.239Z,101533.34
2023-01-20T17:20:46.936Z,101551.19
2023-01-20T17:26:09.525Z,101555.81
2023-01-20T17:31:35.703Z,101578.75
2023-01-20T17:36:57.517Z,101600.50
2023-01-20T17:42:19.417Z,101598.19
2023-01-20T17:47:41.191Z,101604.91
2023-01-20T17:53:03.006Z,101606.59
2023-01-20T17:58:24.775Z,101622.94
2023-01-20T18:03:48.721Z,101636.06
2023-01-20T18:09:13.882Z,101653.59
2023-01-20T18:14:35.573Z,101665.44
2023-01-20T18:19:57.386Z,101676.47
2023-01-20T18:25:19.263Z,101691.97
2023-01-20T18:30:41.071Z,101702.34
2023-01-20T18:36:03.255Z,101707.56
2023-01-20T18:41:27.017Z,101728.69
2023-01-20T18:46:48.951Z,101741.00
2023-01-20T18:52:10.718Z,101742.81
2023-01-20T18:57:32.449Z,101761.09
2023-01-20T19:02:54.205Z,101774.66
2023-01-20T19:08:15.928Z,101792.84
2023-01-20T19:13:37.597Z,101796.00
2023-01-20T19:19:03.849Z,101814.72
2023-01-20T19:24:29.077Z,101824.81
2023-01-20T19:29:50.754Z,101834.69
2023-01-20T19:35:12.479Z,101845.16
2023-01-20T19:40:34.241Z,101852.81
2023-01-20T19:45:56.222Z,101870.28
2023-01-20T19:51:19.945Z,101878.69
2023-01-20T19:56:41.868Z,101899.34
2023-01-20T20:02:03.607Z,101906.66
2023-01-20T20:07:25.365Z,101913.47
2023-01-20T20:12:47.028Z,101918.91
2023-01-20T20:18:09.580Z,101949.75
2023-01-20T20:23:31.414Z,101959.72
2023-01-20T20:28:53.292Z,101967.97
2023-01-20T20:34:18.047Z,101979.72
2023-01-20T20:39:39.717Z,101984.66
2023-01-20T20:45:01.416Z,101999.31
2023-01-20T20:50:24.131Z,102007.78
2023-01-20T20:55:46.183Z,102020.56
2023-01-20T21:01:12.846Z,102036.31
2023-01-20T21:06:34.629Z,102041.44
2023-01-20T21:11:56.432Z,102056.72
2023-01-20T21:17:18.220Z,102060.84
2023-01-20T21:22:40.004Z,102079.56
2023-01-20T21:28:01.730Z,102085.22
2023-01-20T21:33:23.569Z,102108.06
2023-01-20T21:38:46.732Z,102106.09
2023-01-20T21:44:31.648Z,102119.94
2023-01-20T21:50:11.673Z,102131.28
2023-01-20T21:55:33.411Z,102134.69
2023-01-20T22:00:55.763Z,102142.78
2023-01-20T22:06:17.439Z,102149.75
2023-01-20T22:11:39.294Z,102170.44
2023-01-20T22:17:01.115Z,102178.88
2023-01-20T22:22:23.655Z,102188.97
2023-01-20T22:27:48.256Z,102194.84
2023-01-20T22:33:10.084Z,102201.56
2023-01-20T22:38:31.978Z,102208.91
2023-01-20T22:43:53.889Z,102216.63
2023-01-20T22:49:15.655Z,102220.09
2023-01-20T22:54:37.379Z,102238.91
2023-01-20T22:59:59.109Z,102251.47
2023-01-20T23:05:20.832Z,102268.13
2023-01-20T23:10:48.866Z,102277.56
2023-01-20T23:16:15.004Z,102288.66
2023-01-20T23:21:36.723Z,102305.50
2023-01-20T23:26:58.408Z,102309.34
2023-01-20T23:32:20.859Z,102322.13
2023-01-20T23:37:42.660Z,102326.63
2023-01-20T23:43:04.402Z,102328.75
2023-01-20T23:48:26.900Z,102341.31
2023-01-20T23:53:48.734Z,102349.41
2023-01-20T23:59:10.485Z,102353.69
